This is the latest recevied weather packets stored in our database for station/object K4IR. If no packets are shown the sender has not sent any weather packets the latest 10 day(s).
| Time | Temp. | Humidity | Pressure | Rain* | Wind** | Luminosity | Snow |
|---|---|---|---|---|---|---|---|
| 1787700271 | 26.67° C | 79% | 1017.3 hPa | 0 mm | - | 15 W/m² | - |
| 1787699668 | 27.78° C | 75% | 1017.2 hPa | 0 mm | - | 23 W/m² | - |
| 1787699065 | 27.78° C | 72% | 1017.1 hPa | 0 mm | - | 28 W/m² | - |
| 1787698462 | 28.33° C | 70% | 1017.2 hPa | 0 mm | - | 39 W/m² | - |
| 1787697859 | 28.89° C | 67% | 1016.9 hPa | 0 mm | - | 42 W/m² | - |
| 1787697256 | 29.44° C | 66% | 1017 hPa | 0 mm | - | 53 W/m² | - |
| 1787696653 | 29.44° C | 64% | 1017 hPa | 0 mm | - | 96 W/m² | - |
| 1787696049 | 29.44° C | 63% | 1016.9 hPa | 0 mm | - | 89 W/m² | - |
| 1787695445 | 30° C | 63% | 1017 hPa | 0 mm | - | 121 W/m² | - |
| 1787694844 | 29.44° C | 62% | 1016.9 hPa | 0 mm | - | 151 W/m² | - |
| 1787694239 | 28.89° C | 63% | 1016.9 hPa | 0 mm | - | 94 W/m² | - |
| 1787693637 | 30° C | 62% | 1017 hPa | 0 mm | - | 88 W/m² | - |
| 1787693034 | 30° C | 64% | 1017 hPa | 0 mm | - | 107 W/m² | - |
| 1787692431 | 30.56° C | 61% | 1016.8 hPa | 0 mm | - | 296 W/m² | - |
| 1787691830 | 30° C | 62% | 1016.9 hPa | 0 mm | - | 398 W/m² | - |
| 1787691228 | 30° C | 64% | 1016.7 hPa | 0 mm | - | 123 W/m² | - |
| 1787690624 | 30.56° C | 62% | 1016.7 hPa | 0 mm | - | 439 W/m² | - |
| 1787690021 | 31.11° C | 61% | 1016.7 hPa | 0 mm | - | 248 W/m² | - |
| 1787689418 | 30.56° C | 63% | 1016.4 hPa | 0 mm | - | 239 W/m² | - |
| 1787688814 | 30.56° C | 64% | 1016.3 hPa | 0 mm | - | 136 W/m² | - |
| 1787688209 | 30.56° C | 63% | 1016.5 hPa | 0 mm | - | 367 W/m² | - |
| 1787687605 | 32.22° C | 48% | 1016.2 hPa | 0 mm | - | 514 W/m² | - |
| 1787687002 | 32.22° C | 51% | 1016.7 hPa | 0 mm | - | 109 W/m² | - |
| 1787686398 | 31.67° C | 50% | 1016.3 hPa | 0 mm | - | 152 W/m² | - |
| 1787685795 | 31.67° C | 50% | 1016.5 hPa | 0 mm | - | 139 W/m² | - |
* Rain latest hour (hover to see other rain measurements)
** Current wind speed in m/s (hover to see current wind gust speed)